createdAt,value
2017-09-30T00:03:44.512Z,16
2017-09-30T00:13:44.107Z,15
2017-09-30T00:23:44.117Z,16
2017-09-30T00:33:44.711Z,14
2017-09-30T00:43:44.140Z,17
2017-09-30T00:53:44.138Z,14
2017-09-30T01:03:44.124Z,9
2017-09-30T01:13:44.133Z,12
2017-09-30T01:23:44.074Z,22
2017-09-30T01:33:44.157Z,14
2017-09-30T01:43:44.110Z,7
2017-09-30T01:53:44.212Z,5
2017-09-30T02:03:44.119Z,6
2017-09-30T02:13:44.120Z,6
2017-09-30T02:23:44.162Z,6
2017-09-30T02:33:44.067Z,7
2017-09-30T02:43:44.185Z,8
2017-09-30T02:53:44.104Z,10
2017-09-30T03:03:44.172Z,17
2017-09-30T03:13:44.115Z,15
2017-09-30T03:23:44.125Z,18
2017-09-30T03:33:44.171Z,14
2017-09-30T03:43:44.149Z,18
2017-09-30T03:53:44.235Z,15
2017-09-30T04:03:44.333Z,23
2017-09-30T04:13:44.225Z,20
2017-09-30T04:23:44.259Z,20
2017-09-30T04:33:44.235Z,19
2017-09-30T04:43:44.248Z,19
2017-09-30T04:53:44.291Z,17
2017-09-30T05:03:44.221Z,18
2017-09-30T05:13:44.314Z,18
2017-09-30T05:23:44.257Z,16
2017-09-30T05:33:44.248Z,14
2017-09-30T05:43:44.318Z,15
2017-09-30T05:53:44.320Z,13
2017-09-30T06:03:44.321Z,13
2017-09-30T06:13:44.400Z,12
2017-09-30T06:23:44.359Z,10
2017-09-30T06:33:44.349Z,10
2017-09-30T06:43:44.388Z,10
2017-09-30T06:53:44.422Z,11
2017-09-30T07:03:44.354Z,10
2017-09-30T07:13:44.387Z,11
2017-09-30T07:23:44.442Z,10
2017-09-30T07:33:44.340Z,10
2017-09-30T07:43:44.433Z,10
2017-09-30T07:53:44.355Z,10
2017-09-30T08:03:44.467Z,11
2017-09-30T08:13:44.374Z,11
2017-09-30T08:23:44.455Z,9
2017-09-30T08:33:44.438Z,10
2017-09-30T08:43:44.464Z,9
2017-09-30T08:53:44.752Z,9
2017-09-30T09:03:44.471Z,7
2017-09-30T09:13:44.436Z,8
2017-09-30T09:23:46.669Z,7
2017-09-30T09:33:44.562Z,6
2017-09-30T09:43:44.554Z,5
2017-09-30T09:53:44.486Z,6
2017-09-30T10:04:13.744Z,6
2017-09-30T10:13:44.754Z,6
2017-09-30T10:24:03.737Z,7
2017-09-30T10:35:20.873Z,6
2017-09-30T10:45:21.088Z,6
2017-09-30T10:54:48.586Z,5
2017-09-30T11:05:13.154Z,4
2017-09-30T11:15:21.339Z,5
2017-09-30T11:24:50.294Z,4
2017-09-30T11:35:21.077Z,6
2017-09-30T11:45:16.914Z,5
2017-09-30T11:55:25.364Z,5
2017-09-30T12:05:24.518Z,6
2017-09-30T12:15:21.029Z,6
2017-09-30T12:25:22.506Z,7
2017-09-30T12:35:04.573Z,1
2017-09-30T12:45:23.260Z,1
2017-09-30T12:55:23.039Z,1
2017-09-30T13:05:24.520Z,1
2017-09-30T13:15:22.166Z,1
2017-09-30T13:24:59.771Z,1
2017-09-30T13:35:21.838Z,2
2017-09-30T13:45:18.329Z,2
2017-09-30T13:55:16.057Z,2
2017-09-30T14:05:21.916Z,2
2017-09-30T14:15:21.413Z,2
2017-09-30T14:24:50.722Z,3
2017-09-30T14:35:20.343Z,2
2017-09-30T14:45:28.414Z,2
2017-09-30T14:55:21.833Z,3
2017-09-30T15:04:59.133Z,3
2017-09-30T15:14:57.858Z,2
2017-09-30T15:24:55.518Z,4
2017-09-30T15:35:12.261Z,4
2017-09-30T15:45:27.399Z,3
2017-09-30T15:55:10.167Z,3
2017-09-30T16:04:55.961Z,1
2017-09-30T16:14:45.243Z,2
2017-09-30T16:24:53.879Z,2
2017-09-30T16:35:19.704Z,2
2017-09-30T16:44:40.500Z,2
2017-09-30T16:55:23.264Z,2
2017-09-30T17:05:23.518Z,2
2017-09-30T17:15:10.930Z,3
2017-09-30T17:25:24.915Z,2
2017-09-30T17:35:11.400Z,2
2017-09-30T17:45:19.780Z,2
2017-09-30T17:55:22.723Z,2
2017-09-30T18:05:26.533Z,3
2017-09-30T18:15:20.036Z,4
2017-09-30T18:25:20.799Z,4
2017-09-30T18:35:05.350Z,5
2017-09-30T18:45:23.962Z,6
2017-09-30T18:55:20.184Z,7
2017-09-30T19:05:20.994Z,9
2017-09-30T19:15:25.728Z,11
2017-09-30T19:24:59.278Z,10
2017-09-30T19:35:25.150Z,11
2017-09-30T19:45:18.228Z,11
2017-09-30T19:55:22.855Z,10
2017-09-30T20:05:18.734Z,10
2017-09-30T20:14:51.883Z,11
2017-09-30T20:25:16.731Z,11
2017-09-30T20:35:09.781Z,9
2017-09-30T20:45:18.415Z,19
2017-09-30T20:55:24.925Z,10
2017-09-30T21:04:53.831Z,11
2017-09-30T21:15:15.984Z,10
2017-09-30T21:25:23.680Z,11
2017-09-30T21:35:28.521Z,10
2017-09-30T21:45:22.831Z,9
2017-09-30T21:55:03.754Z,9
2017-09-30T22:05:22.307Z,9
2017-09-30T22:15:16.284Z,9
2017-09-30T22:25:23.128Z,10
2017-09-30T22:35:20.041Z,10
2017-09-30T22:45:19.914Z,12
2017-09-30T22:55:20.055Z,11
2017-09-30T23:04:55.487Z,10
2017-09-30T23:13:44.611Z,9
2017-09-30T23:23:44.621Z,9
2017-09-30T23:33:44.656Z,9
2017-09-30T23:43:44.637Z,9
2017-09-30T23:53:44.692Z,9
